Time;durP1;ratioP1;P1;durP2;ratioP2;P2;SDS_P1;SDS_P2;PMS_P1;PMS_P2;Temp;Humidity;BMP_temperature;BMP_pressure;BME280_temperature;BME280_humidity;BME280_pressure;Samples;Min_cycle;Max_cycle;Signal;HPM_P1;HPM_P2
2022/10/14 00:01:53;;;;;;;0.22;0.20;;;22.90;74.20;;;;;;5072441;28;20371;-81
2022/10/14 00:04:20;;;;;;;6.43;0.70;;;23.00;74.50;;;;;;5072419;28;20473;-81
2022/10/14 00:06:47;;;;;;;0.88;0.20;;;23.10;73.30;;;;;;5072598;28;20465;-81
2022/10/14 00:09:14;;;;;;;7.82;0.52;;;23.00;70.70;;;;;;5072775;28;20366;-82
2022/10/14 00:11:41;;;;;;;1.88;0.30;;;22.80;71.10;;;;;;5072391;28;20390;-81
2022/10/14 00:14:14;;;;;;;6.45;0.80;;;22.80;70.20;;;;;;5072286;28;20409;-82
2022/10/14 00:16:44;;;;;;;0.90;0.10;;;22.90;69.90;;;;;;5073944;28;20373;-81
2022/10/14 00:19:11;;;;;;;1.00;0.10;;;22.90;68.10;;;;;;5075026;28;20760;-82
2022/10/14 00:21:41;;;;;;;0.95;0.13;;;23.10;67.60;;;;;;5072388;28;20401;-81
2022/10/14 00:24:08;;;;;;;1.20;0.20;;;23.00;67.60;;;;;;5072200;28;20445;-80
2022/10/14 00:26:37;;;;;;;0.95;0.52;;;23.00;68.50;;;;;;5072033;28;20375;-83
2022/10/14 00:29:08;;;;;;;2.90;0.30;;;23.20;69.50;;;;;;5076041;28;20366;-82
2022/10/14 00:31:35;;;;;;;3.17;0.38;;;23.50;65.10;;;;;;5076081;28;20389;-83
2022/10/14 00:34:02;;;;;;;0.60;0.28;;;23.30;64.10;;;;;;5076213;28;20382;-83
2022/10/14 00:36:29;;;;;;;0.45;0.13;;;23.30;64.30;;;;;;5076133;28;20365;-82
2022/10/14 00:38:56;;;;;;;1.80;0.20;;;23.40;65.40;;;;;;5076292;28;20462;-81
2022/10/14 00:41:29;;;;;;;0.57;0.15;;;23.60;67.10;;;;;;5075713;28;20463;-81
2022/10/14 00:44:01;;;;;;;0.35;0.20;;;23.70;65.50;;;;;;5075939;28;20370;-81
2022/10/14 00:46:31;;;;;;;2.40;0.20;;;23.80;65.00;;;;;;5076147;28;20461;-81
2022/10/14 00:49:02;;;;;;;2.30;0.25;;;23.90;56.60;;;;;;5059774;28;20865;-81
2022/10/14 00:51:29;;;;;;;3.08;0.40;;;23.60;55.20;;;;;;5076209;28;20465;-82
2022/10/14 00:53:57;;;;;;;2.00;0.20;;;23.60;59.50;;;;;;5078552;28;20393;-81
2022/10/14 00:56:28;;;;;;;1.77;0.20;;;23.60;58.80;;;;;;5078725;28;20378;-82
2022/10/14 00:58:56;;;;;;;2.35;0.20;;;23.60;57.80;;;;;;5080127;28;20869;-82
2022/10/14 01:01:23;;;;;;;2.50;0.50;;;23.40;55.50;;;;;;5061540;28;20386;-82
2022/10/14 01:03:50;;;;;;;3.28;0.82;;;23.40;56.00;;;;;;5077258;28;20386;-81
2022/10/14 01:06:31;;;;;;;2.40;0.20;;;23.40;57.50;;;;;;5076433;28;20877;-81
2022/10/14 01:09:10;;;;;;;4.35;0.50;;;23.40;57.30;;;;;;5079735;28;20377;-80
2022/10/14 01:11:46;;;;;;;1.90;0.30;;;23.70;57.90;;;;;;5080618;28;20411;-81
2022/10/14 01:14:16;;;;;;;0.10;0.10;;;23.80;56.80;;;;;;5082805;28;20467;-80
2022/10/14 01:17:21;;;;;;;1.15;0.25;;;24.00;56.90;;;;;;5076994;28;20851;-81
2022/10/14 01:19:54;;;;;;;1.88;0.20;;;24.10;54.60;;;;;;5000209;28;20401;-81
2022/10/14 01:22:44;;;;;;;3.60;0.55;;;24.10;54.00;;;;;;4996612;28;21739;-82
2022/10/14 01:25:31;;;;;;;1.90;0.40;;;23.80;55.10;;;;;;4997491;28;20384;-81
2022/10/14 01:28:35;;;;;;;1.77;0.40;;;23.90;55.00;;;;;;4959964;29;20384;-81
2022/10/14 01:31:09;;;;;;;0.30;0.10;;;24.50;53.10;;;;;;4882379;29;20399;-81
2022/10/14 01:33:44;;;;;;;0.52;0.10;;;24.90;51.50;;;;;;4881505;29;20423;-83
2022/10/14 01:36:20;;;;;;;3.00;0.20;;;24.80;51.00;;;;;;4879796;29;20390;-82
2022/10/14 01:39:13;;;;;;;2.72;0.38;;;25.00;52.90;;;;;;4879516;29;20930;-84
2022/10/14 01:41:48;;;;;;;3.00;0.30;;;24.90;50.50;;;;;;4880893;29;20383;-83
2022/10/14 01:44:18;;;;;;;3.83;0.22;;;25.10;49.20;;;;;;4882018;29;20401;-83
2022/10/14 01:46:50;;;;;;;0.60;0.20;;;25.20;48.80;;;;;;4880738;29;20451;-82
2022/10/14 01:49:28;;;;;;;0.15;0.15;;;25.30;49.70;;;;;;4879982;29;20470;-83
2022/10/14 01:52:13;;;;;;;3.85;0.60;;;25.30;47.70;;;;;;4879430;29;20876;-82
2022/10/14 01:54:43;;;;;;;2.60;0.60;;;25.10;47.10;;;;;;4912355;29;20411;-81
2022/10/14 01:57:18;;;;;;;2.80;0.40;;;24.90;48.00;;;;;;4916930;29;20379;-82
2022/10/14 01:59:46;;;;;;;1.13;0.32;;;25.30;47.80;;;;;;4917393;29;20450;-82
2022/10/14 02:02:13;;;;;;;5.57;0.50;;;25.50;49.30;;;;;;4917125;29;20415;-83
2022/10/14 02:04:40;;;;;;;0.20;0.20;;;25.70;47.50;;;;;;4936912;28;20421;-81
2022/10/14 02:07:13;;;;;;;0.20;0.20;;;25.70;47.90;;;;;;4992785;28;20390;-83
2022/10/14 02:10:09;;;;;;;1.10;0.30;;;25.50;45.90;;;;;;5075094;28;20436;-83
2022/10/14 02:12:58;;;;;;;1.25;0.52;;;25.40;47.00;;;;;;5057149;28;20746;-82
2022/10/14 02:15:33;;;;;;;3.78;0.35;;;25.40;46.30;;;;;;5074758;28;20381;-83
2022/10/14 02:18:30;;;;;;;0.50;0.20;;;25.60;45.20;;;;;;5074915;28;20401;-81
2022/10/14 02:21:21;;;;;;;0.52;0.20;;;25.50;45.60;;;;;;5074528;28;20442;-81
2022/10/14 02:24:10;;;;;;;1.20;0.30;;;25.90;47.40;;;;;;5073104;28;20378;-82
2022/10/14 02:26:38;;;;;;;0.60;0.28;;;26.40;46.50;;;;;;5074204;28;20370;-83
2022/10/14 02:29:06;;;;;;;2.47;0.30;;;26.60;43.40;;;;;;5074064;28;20374;-83
2022/10/14 02:31:37;;;;;;;0.22;0.20;;;26.60;43.20;;;;;;5073913;28;20370;-83
2022/10/14 02:34:09;;;;;;;0.77;0.40;;;26.40;43.20;;;;;;5074324;28;20402;-82
2022/10/14 02:36:36;;;;;;;1.67;0.32;;;26.50;45.10;;;;;;5074150;28;20381;-83
2022/10/14 02:39:05;;;;;;;1.60;0.40;;;26.70;40.80;;;;;;5074657;28;20413;-84
2022/10/14 02:41:36;;;;;;;1.97;0.30;;;25.90;40.40;;;;;;5076768;28;20862;-83
2022/10/14 02:44:05;;;;;;;1.50;0.30;;;26.10;38.60;;;;;;5079063;28;20428;-82
2022/10/14 02:46:33;;;;;;;0.30;0.30;;;26.20;38.00;;;;;;5082211;28;20934;-81
2022/10/14 02:49:00;;;;;;;0.40;0.30;;;26.10;38.40;;;;;;5082766;28;20418;-81
2022/10/14 02:51:27;;;;;;;0.98;0.30;;;26.00;39.40;;;;;;5076938;28;20398;-81
2022/10/14 02:53:56;;;;;;;0.25;0.20;;;25.80;38.60;;;;;;5075780;28;20379;-82
2022/10/14 02:56:23;;;;;;;0.40;0.30;;;26.10;39.00;;;;;;5074840;28;20381;-83
2022/10/14 02:58:50;;;;;;;1.10;0.40;;;26.30;39.20;;;;;;5074231;28;20390;-84
2022/10/14 03:01:17;;;;;;;1.40;0.30;;;26.80;39.30;;;;;;5073687;28;20413;-83
2022/10/14 03:03:44;;;;;;;1.35;0.20;;;27.10;38.90;;;;;;5072971;28;20379;-84
2022/10/14 03:06:11;;;;;;;1.40;0.35;;;26.40;37.30;;;;;;5070485;28;20378;-81
2022/10/14 03:08:38;;;;;;;1.42;0.40;;;26.10;37.70;;;;;;5073947;28;20456;-82
2022/10/14 03:11:05;;;;;;;2.63;0.57;;;26.30;39.70;;;;;;5073105;28;20382;-83
2022/10/14 03:13:32;;;;;;;2.03;0.50;;;26.90;39.50;;;;;;5072975;28;20434;-83
2022/10/14 03:15:59;;;;;;;4.25;0.57;;;27.40;38.70;;;;;;5073210;28;20374;-84
2022/10/14 03:18:26;;;;;;;0.98;0.30;;;27.40;39.00;;;;;;5055894;28;20808;-83
2022/10/14 03:20:53;;;;;;;1.63;0.50;;;27.70;38.60;;;;;;5074399;28;20404;-83
2022/10/14 03:23:20;;;;;;;4.45;0.77;;;27.50;38.10;;;;;;5073001;28;20386;-83
2022/10/14 03:25:47;;;;;;;1.27;0.40;;;27.00;38.60;;;;;;5072897;28;20475;-82
2022/10/14 03:28:14;;;;;;;0.88;0.32;;;26.60;38.80;;;;;;5072875;28;20493;-83
2022/10/14 03:30:41;;;;;;;0.50;0.30;;;26.20;39.20;;;;;;5072724;28;20381;-82
2022/10/14 03:33:08;;;;;;;0.75;0.38;;;26.30;39.50;;;;;;5072896;28;20398;-83
2022/10/14 03:35:36;;;;;;;2.55;0.40;;;25.60;42.60;;;;;;5072980;28;20399;-83
2022/10/14 03:38:05;;;;;;;0.68;0.30;;;25.90;42.20;;;;;;5073115;28;20452;-83
2022/10/14 03:40:32;;;;;;;1.45;0.30;;;26.20;40.30;;;;;;5070009;28;20385;-83
2022/10/14 03:43:00;;;;;;;0.52;0.30;;;26.70;40.00;;;;;;5055051;28;20374;-83
2022/10/14 03:45:27;;;;;;;0.60;0.30;;;26.70;39.80;;;;;;5072584;28;20363;-83
2022/10/14 03:47:55;;;;;;;0.60;0.38;;;26.20;40.90;;;;;;5072532;28;20381;-83
2022/10/14 03:50:22;;;;;;;0.55;0.30;;;25.90;42.80;;;;;;5072751;28;20904;-81
2022/10/14 03:52:49;;;;;;;2.05;0.50;;;25.10;42.20;;;;;;5072699;28;20456;-82
2022/10/14 03:55:16;;;;;;;2.58;0.40;;;25.10;43.30;;;;;;5072618;28;20392;-83
2022/10/14 03:57:43;;;;;;;0.70;0.30;;;24.70;43.30;;;;;;5075574;28;20378;-83
2022/10/14 04:00:11;;;;;;;0.85;0.30;;;24.60;43.90;;;;;;5081502;28;20370;-82
2022/10/14 04:02:38;;;;;;;0.30;0.20;;;25.70;42.70;;;;;;5076859;28;20382;-83
2022/10/14 04:05:06;;;;;;;0.68;0.30;;;26.30;41.80;;;;;;5074303;28;20366;-83
2022/10/14 04:07:33;;;;;;;2.60;0.40;;;25.90;42.00;;;;;;5074167;28;20370;-85
2022/10/14 04:10:00;;;;;;;0.90;0.32;;;25.40;43.70;;;;;;5075147;28;20434;-86
2022/10/14 04:12:27;;;;;;;1.47;0.37;;;26.20;43.80;;;;;;5074618;28;20394;-84
2022/10/14 04:14:55;;;;;;;2.30;0.50;;;26.30;42.40;;;;;;5074441;28;20479;-83
2022/10/14 04:17:23;;;;;;;0.60;0.30;;;26.70;44.20;;;;;;5077478;28;20917;-84
2022/10/14 04:19:51;;;;;;;3.88;0.40;;;27.50;42.00;;;;;;5078538;28;20378;-83
2022/10/14 04:22:19;;;;;;;2.00;0.47;;;27.90;41.40;;;;;;5080145;28;20377;-83
2022/10/14 04:24:46;;;;;;;0.77;0.30;;;27.20;40.70;;;;;;5078121;28;20385;-84
2022/10/14 04:27:13;;;;;;;2.15;0.40;;;27.40;42.00;;;;;;5075401;28;20388;-82
2022/10/14 04:29:40;;;;;;;1.58;0.35;;;27.10;41.60;;;;;;5074259;28;20378;-85
2022/10/14 04:32:07;;;;;;;3.50;0.40;;;26.60;42.60;;;;;;5073722;28;20478;-83
2022/10/14 04:34:34;;;;;;;1.30;0.30;;;26.70;43.10;;;;;;5075131;28;20449;-83
2022/10/14 04:37:01;;;;;;;1.25;0.30;;;27.10;41.50;;;;;;5075952;28;20488;-83
2022/10/14 04:39:28;;;;;;;0.90;0.30;;;27.10;41.40;;;;;;5074363;28;20724;-84
2022/10/14 04:41:56;;;;;;;0.67;0.30;;;26.70;41.50;;;;;;5074364;28;20374;-85
2022/10/14 04:44:23;;;;;;;1.15;0.50;;;27.00;41.40;;;;;;5072782;28;20382;-82
2022/10/14 04:46:50;;;;;;;1.80;0.40;;;27.20;40.70;;;;;;5072709;28;20374;-82
2022/10/14 04:49:17;;;;;;;0.50;0.30;;;26.00;39.60;;;;;;5076702;28;20414;-82
2022/10/14 04:51:44;;;;;;;1.30;0.38;;;24.80;42.10;;;;;;5074241;28;20842;-81
2022/10/14 04:54:11;;;;;;;0.82;0.40;;;24.00;43.30;;;;;;5073536;28;20378;-82
2022/10/14 04:56:40;;;;;;;0.40;0.30;;;23.70;44.20;;;;;;5073327;28;20366;-83
2022/10/14 04:59:07;;;;;;;2.45;0.40;;;24.80;44.50;;;;;;5073537;28;20394;-83
2022/10/14 05:01:34;;;;;;;1.20;0.30;;;26.10;43.20;;;;;;5074039;28;20416;-82
2022/10/14 05:04:01;;;;;;;2.73;0.50;;;26.30;40.60;;;;;;5076042;28;20378;-84
2022/10/14 05:06:29;;;;;;;3.42;0.40;;;25.80;41.80;;;;;;5078550;28;20718;-82
2022/10/14 05:08:56;;;;;;;7.47;0.40;;;26.10;41.70;;;;;;5077025;28;20382;-82
2022/10/14 05:11:23;;;;;;;1.73;0.40;;;25.90;42.10;;;;;;5075527;28;20805;-83
2022/10/14 05:13:50;;;;;;;1.98;0.30;;;26.10;41.80;;;;;;5072292;28;20441;-84
2022/10/14 05:16:17;;;;;;;2.00;0.32;;;26.20;41.10;;;;;;5077272;28;20854;-84
2022/10/14 05:18:44;;;;;;;1.50;0.40;;;25.90;41.60;;;;;;5077290;28;20861;-85
2022/10/14 05:21:11;;;;;;;1.35;0.40;;;25.30;42.40;;;;;;5059557;28;20434;-82
2022/10/14 05:23:38;;;;;;;1.30;0.40;;;25.30;41.90;;;;;;5077417;28;20374;-84
2022/10/14 05:26:05;;;;;;;7.32;0.50;;;24.40;42.50;;;;;;5078674;28;20386;-83
2022/10/14 05:28:32;;;;;;;1.25;0.50;;;23.50;44.60;;;;;;5088642;28;20385;-84
2022/10/14 05:30:59;;;;;;;2.30;0.50;;;23.50;46.10;;;;;;5088961;28;20374;-83
2022/10/14 05:33:27;;;;;;;2.30;0.40;;;24.60;44.40;;;;;;5067717;28;20485;-85
2022/10/14 05:35:54;;;;;;;0.80;0.30;;;25.10;44.40;;;;;;5085168;28;20374;-83
2022/10/14 05:38:22;;;;;;;2.17;0.43;;;25.30;42.70;;;;;;5087274;28;20445;-85
2022/10/14 05:40:54;;;;;;;0.95;0.40;;;25.50;43.60;;;;;;5094647;28;20373;-86
2022/10/14 05:43:23;;;;;;;0.80;0.40;;;26.00;42.70;;;;;;5095456;28;20370;-85
2022/10/14 05:45:50;;;;;;;1.77;0.50;;;26.10;43.10;;;;;;5096876;28;20382;-81
2022/10/14 05:48:18;;;;;;;1.48;0.50;;;26.70;42.90;;;;;;5097912;28;20393;-81
2022/10/14 05:50:45;;;;;;;3.95;0.55;;;26.10;42.60;;;;;;5097514;28;20449;-82
2022/10/14 05:53:15;;;;;;;3.00;0.40;;;24.70;44.10;;;;;;5096746;28;20420;-86
2022/10/14 05:55:42;;;;;;;2.38;0.52;;;23.80;45.70;;;;;;5097104;28;20377;-84
2022/10/14 05:58:09;;;;;;;2.80;0.40;;;23.60;46.10;;;;;;5096439;28;20428;-88
2022/10/14 06:00:36;;;;;;;4.28;0.60;;;23.90;46.10;;;;;;5096962;28;20449;-88
2022/10/14 06:03:03;;;;;;;1.08;0.45;;;24.50;45.50;;;;;;5094313;28;20408;-85
2022/10/14 06:05:30;;;;;;;1.67;0.30;;;25.20;44.80;;;;;;5082474;28;20425;-83
2022/10/14 06:07:57;;;;;;;1.27;0.40;;;24.60;45.40;;;;;;5077815;28;20409;-86
2022/10/14 06:10:26;;;;;;;1.50;0.50;;;24.40;47.10;;;;;;5076888;28;20370;-83
2022/10/14 06:12:53;;;;;;;1.00;0.30;;;24.10;46.70;;;;;;5076895;28;20433;-84
2022/10/14 06:15:21;;;;;;;1.60;0.40;;;24.00;46.60;;;;;;5077743;28;20366;-90
2022/10/14 06:17:48;;;;;;;0.88;0.40;;;24.40;46.30;;;;;;5075688;28;20730;-85
2022/10/14 06:20:15;;;;;;;1.30;0.73;;;24.40;46.40;;;;;;5077049;28;20944;-83
2022/10/14 06:22:42;;;;;;;0.70;0.50;;;24.40;46.30;;;;;;5074962;28;20370;-81
2022/10/14 06:25:09;;;;;;;0.57;0.40;;;24.50;46.10;;;;;;5074967;28;20769;-85
2022/10/14 06:27:36;;;;;;;0.82;0.30;;;24.50;46.80;;;;;;5075873;28;20865;-83
2022/10/14 06:30:04;;;;;;;0.50;0.40;;;24.50;46.80;;;;;;5075355;28;20374;-84
2022/10/14 06:32:31;;;;;;;1.73;0.40;;;24.10;47.30;;;;;;5074718;28;20428;-84
2022/10/14 06:34:58;;;;;;;0.98;0.30;;;23.50;48.90;;;;;;5074698;28;20420;-82
2022/10/14 06:37:25;;;;;;;0.68;0.30;;;22.90;50.20;;;;;;5074478;28;20386;-86
2022/10/14 06:39:52;;;;;;;1.15;0.30;;;22.40;50.90;;;;;;5074149;28;20370;-84
2022/10/14 06:42:19;;;;;;;1.30;0.32;;;22.20;51.60;;;;;;5074203;28;20381;-83
2022/10/14 06:44:46;;;;;;;1.30;0.30;;;22.30;52.00;;;;;;5074198;28;20401;-84
2022/10/14 06:47:14;;;;;;;0.43;0.30;;;22.20;52.20;;;;;;5073916;28;20378;-83
2022/10/14 06:49:41;;;;;;;1.30;0.40;;;22.00;53.20;;;;;;5073867;28;20374;-84
2022/10/14 06:52:08;;;;;;;1.08;0.32;;;22.10;53.00;;;;;;5074373;28;20735;-84
2022/10/14 06:54:35;;;;;;;0.47;0.30;;;22.50;53.30;;;;;;5073781;28;20385;-84
2022/10/14 06:57:02;;;;;;;0.90;0.30;;;22.90;52.10;;;;;;5073778;28;20742;-83
2022/10/14 06:59:29;;;;;;;1.02;0.38;;;23.40;51.50;;;;;;5073596;28;20850;-83
2022/10/14 07:01:56;;;;;;;0.85;0.32;;;23.80;50.20;;;;;;5073660;28;20419;-85
2022/10/14 07:04:26;;;;;;;0.88;0.38;;;23.50;50.60;;;;;;5073605;28;20377;-84
2022/10/14 07:06:56;;;;;;;1.50;0.40;;;23.30;51.40;;;;;;5073903;28;20370;-91
2022/10/14 07:09:23;;;;;;;1.33;0.30;;;23.10;51.40;;;;;;5073580;28;20726;-84
2022/10/14 07:11:50;;;;;;;0.85;0.47;;;22.90;51.30;;;;;;5072987;28;20381;-84
2022/10/14 07:14:17;;;;;;;1.67;0.40;;;22.60;51.40;;;;;;5073266;28;20402;-86
2022/10/14 07:16:45;;;;;;;0.52;0.30;;;22.30;51.30;;;;;;5055740;28;20370;-89
2022/10/14 07:19:12;;;;;;;2.20;0.30;;;21.90;51.20;;;;;;5074001;28;20413;-83
2022/10/14 07:21:41;;;;;;;0.68;0.40;;;21.90;51.00;;;;;;5076744;28;20437;-83
2022/10/14 07:24:09;;;;;;;2.25;0.57;;;21.70;51.50;;;;;;5074372;28;20450;-86
2022/10/14 07:26:36;;;;;;;1.50;0.70;;;21.40;52.30;;;;;;5073704;28;20373;-85
2022/10/14 07:29:05;;;;;;;1.55;1.17;;;21.30;53.20;;;;;;5074118;28;20374;-82
2022/10/14 07:31:32;;;;;;;1.80;0.50;;;21.00;53.70;;;;;;5073362;28;20377;-84
2022/10/14 07:34:00;;;;;;;0.80;0.50;;;21.10;53.70;;;;;;5074176;28;20412;-82
2022/10/14 07:36:27;;;;;;;1.30;0.50;;;21.30;53.60;;;;;;5076004;28;20370;-82
2022/10/14 07:38:54;;;;;;;1.05;0.95;;;21.30;53.60;;;;;;5082907;28;20420;-82
2022/10/14 07:41:24;;;;;;;0.73;0.40;;;21.40;53.80;;;;;;5081357;28;20370;-83
2022/10/14 07:44:05;;;;;;;0.70;0.70;;;21.20;54.40;;;;;;5083866;28;20429;-80
2022/10/14 07:46:33;;;;;;;1.83;0.60;;;20.90;54.90;;;;;;5081444;28;20366;-84
2022/10/14 07:49:07;;;;;;;0.98;0.60;;;20.60;55.60;;;;;;5080197;28;20381;-83
2022/10/14 07:51:34;;;;;;;1.40;0.98;;;20.40;56.10;;;;;;5081032;28;20371;-83
2022/10/14 07:54:04;;;;;;;1.63;1.10;;;20.30;56.70;;;;;;5076660;28;20430;-83
2022/10/14 07:56:33;;;;;;;2.10;1.90;;;20.20;56.60;;;;;;5074505;28;20742;-83
2022/10/14 07:59:00;;;;;;;2.33;0.60;;;20.10;57.20;;;;;;5074732;28;20382;-83
2022/10/14 08:01:27;;;;;;;1.20;0.60;;;20.00;57.50;;;;;;5076658;28;20370;-83
2022/10/14 08:04:09;;;;;;;1.88;0.95;;;19.80;58.40;;;;;;5075439;28;20377;-83
2022/10/14 08:06:36;;;;;;;2.63;2.25;;;19.70;58.70;;;;;;5075523;28;20728;-84
2022/10/14 08:09:08;;;;;;;2.22;1.75;;;19.50;59.30;;;;;;5072976;28;20700;-83
2022/10/14 08:11:36;;;;;;;1.67;0.80;;;19.40;59.70;;;;;;5073248;28;20374;-84
2022/10/14 08:14:03;;;;;;;2.00;1.20;;;19.30;60.30;;;;;;5073358;28;20398;-83
2022/10/14 08:16:32;;;;;;;3.55;2.85;;;19.20;60.70;;;;;;5074605;28;20427;-84
2022/10/14 08:19:03;;;;;;;1.70;0.70;;;19.00;62.10;;;;;;5073115;28;20377;-84
2022/10/14 08:21:30;;;;;;;2.47;1.70;;;19.00;61.80;;;;;;5072452;28;20432;-85
2022/10/14 08:23:58;;;;;;;1.40;0.60;;;18.80;62.50;;;;;;5054907;28;20376;-84
2022/10/14 08:26:39;;;;;;;0.82;0.60;;;18.70;63.30;;;;;;5072716;28;20877;-83
2022/10/14 08:29:10;;;;;;;1.33;0.60;;;18.60;63.10;;;;;;5072772;28;20370;-87
2022/10/14 08:31:38;;;;;;;1.15;0.43;;;18.50;64.20;;;;;;5073109;28;20700;-84
2022/10/14 08:34:05;;;;;;;3.90;0.60;;;18.40;64.60;;;;;;5074184;28;20394;-83
2022/10/14 08:36:32;;;;;;;1.35;0.50;;;18.30;64.60;;;;;;5073016;28;20722;-84
2022/10/14 08:38:59;;;;;;;0.50;0.50;;;18.20;65.70;;;;;;5072513;28;20382;-86
2022/10/14 08:41:44;;;;;;;0.75;0.50;;;18.20;65.80;;;;;;5072391;28;20374;-85
2022/10/14 08:44:48;;;;;;;0.60;0.40;;;18.10;66.00;;;;;;5071936;28;20366;-82
2022/10/14 08:47:20;;;;;;;1.38;0.70;;;18.00;66.40;;;;;;5071851;28;20382;-82
2022/10/14 08:50:05;;;;;;;2.90;1.50;;;17.90;67.10;;;;;;5057155;28;20417;-82
2022/10/14 08:53:00;;;;;;;3.72;1.45;;;17.80;67.60;;;;;;5076530;28;20394;-82
2022/10/14 08:55:40;;;;;;;4.70;2.20;;;17.70;68.00;;;;;;4994658;28;20384;-87
2022/10/14 08:58:23;;;;;;;4.45;2.58;;;17.70;68.40;;;;;;4994630;28;20865;-82
2022/10/14 09:00:52;;;;;;;9.50;2.13;;;17.60;68.70;;;;;;4994871;28;20389;-83
2022/10/14 09:03:32;;;;;;;7.77;2.30;;;17.50;69.00;;;;;;4994872;28;20412;-86
2022/10/14 09:06:29;;;;;;;5.25;2.60;;;17.50;69.70;;;;;;4994766;28;20518;-89
2022/10/14 09:09:10;;;;;;;3.33;1.20;;;17.40;70.10;;;;;;4955660;29;20438;-87
2022/10/14 09:11:43;;;;;;;3.55;1.30;;;17.40;70.60;;;;;;4955589;29;20395;-86
2022/10/14 09:14:19;;;;;;;2.87;1.50;;;17.40;71.10;;;;;;4955271;28;20476;-87
2022/10/14 09:16:48;;;;;;;2.00;1.20;;;17.40;71.10;;;;;;4956016;29;20963;-86
2022/10/14 09:19:23;;;;;;;1.42;0.70;;;17.40;71.20;;;;;;4939727;29;20737;-83
2022/10/14 09:21:53;;;;;;;1.85;0.60;;;17.30;71.90;;;;;;4957224;29;20387;-84
2022/10/14 09:24:31;;;;;;;3.40;0.70;;;17.20;72.70;;;;;;4939976;29;20388;-82
2022/10/14 09:27:11;;;;;;;2.88;0.70;;;17.20;73.70;;;;;;4955657;29;21058;-83
2022/10/14 09:29:46;;;;;;;1.60;0.70;;;17.10;74.60;;;;;;4940172;29;20451;-82
2022/10/14 09:32:29;;;;;;;1.10;0.60;;;17.00;74.80;;;;;;4985784;28;20450;-84
2022/10/14 09:34:58;;;;;;;1.63;0.80;;;17.00;76.10;;;;;;5014473;28;20816;-85
2022/10/14 09:37:30;;;;;;;1.47;1.20;;;17.00;75.20;;;;;;5013438;28;20470;-85
2022/10/14 09:40:30;;;;;;;2.88;1.30;;;17.10;76.00;;;;;;5013529;28;20390;-81
2022/10/14 09:43:18;;;;;;;3.03;1.70;;;17.10;74.80;;;;;;5013699;28;20379;-83
2022/10/14 09:45:59;;;;;;;3.50;2.03;;;17.10;75.40;;;;;;5043014;28;20366;-89
2022/10/14 09:48:31;;;;;;;2.40;1.60;;;17.10;76.20;;;;;;5074959;28;20737;-86
2022/10/14 09:51:05;;;;;;;2.47;1.40;;;17.10;76.90;;;;;;5074833;28;20725;-83
2022/10/14 09:53:46;;;;;;;2.47;1.60;;;17.70;76.70;;;;;;5075223;28;20758;-84
2022/10/14 09:56:14;;;;;;;2.55;1.50;;;17.10;75.00;;;;;;5075188;28;20388;-83
2022/10/14 09:58:52;;;;;;;3.30;1.50;;;17.10;75.20;;;;;;5075269;28;20374;-82
2022/10/14 10:01:24;;;;;;;3.63;1.45;;;17.10;74.70;;;;;;5072843;28;20394;-81
2022/10/14 10:03:53;;;;;;;2.13;1.50;;;17.10;74.60;;;;;;5075643;28;20359;-82
2022/10/14 10:06:24;;;;;;;3.10;1.40;;;16.50;74.90;;;;;;5074735;28;20374;-84
2022/10/14 10:08:54;;;;;;;2.53;1.40;;;16.90;76.50;;;;;;5075246;28;20407;-83
2022/10/14 10:11:32;;;;;;;2.37;1.50;;;16.80;77.50;;;;;;5074350;28;20379;-83
2022/10/14 10:14:14;;;;;;;3.97;1.85;;;16.70;78.30;;;;;;5074175;28;20398;-85
2022/10/14 10:16:41;;;;;;;2.30;2.00;;;16.70;79.20;;;;;;5075024;28;20706;-84
2022/10/14 10:19:26;;;;;;;2.83;2.00;;;16.70;79.20;;;;;;5074298;28;20386;-83
2022/10/14 10:21:54;;;;;;;2.97;1.85;;;16.60;79.20;;;;;;5074052;28;20358;-85
2022/10/14 10:24:23;;;;;;;4.65;2.00;;;16.60;78.50;;;;;;5056207;28;20897;-87
2022/10/14 10:26:50;;;;;;;2.97;1.70;;;16.60;77.30;;;;;;5074072;28;20371;-83
2022/10/14 10:29:30;;;;;;;3.25;1.67;;;16.60;77.60;;;;;;5074365;28;20960;-86
2022/10/14 10:32:07;;;;;;;3.58;1.92;;;16.60;78.30;;;;;;5074031;28;20386;-83
2022/10/14 10:35:04;;;;;;;3.63;2.00;;;16.50;78.80;;;;;;5074526;28;20373;-84
2022/10/14 10:38:01;;;;;;;3.67;1.88;;;16.50;78.00;;;;;;5074263;28;20370;-84
2022/10/14 10:41:02;;;;;;;2.00;1.30;;;16.40;78.50;;;;;;5074176;28;20454;-82
2022/10/14 10:43:56;;;;;;;3.47;1.70;;;16.40;78.60;;;;;;4992595;28;20439;-83
2022/10/14 10:46:40;;;;;;;4.43;2.75;;;16.40;79.20;;;;;;4992460;28;20391;-82
2022/10/14 10:49:33;;;;;;;4.75;2.80;;;16.30;80.60;;;;;;4993118;28;20431;-82
2022/10/14 10:52:04;;;;;;;2.92;2.38;;;16.20;80.90;;;;;;4992619;28;20995;-86
2022/10/14 10:54:49;;;;;;;4.05;2.20;;;16.00;82.00;;;;;;4992804;28;20389;-81
2022/10/14 10:57:29;;;;;;;3.00;2.40;;;16.00;83.40;;;;;;4992352;28;20372;-84
2022/10/14 11:00:11;;;;;;;4.57;2.10;;;15.90;84.10;;;;;;4992927;28;20755;-85
2022/10/14 11:03:05;;;;;;;3.80;2.00;;;15.70;84.60;;;;;;4992488;28;20376;-81
2022/10/14 11:05:55;;;;;;;3.97;2.00;;;15.60;86.70;;;;;;4993251;28;20372;-85
2022/10/14 11:12:12;;;;;;;2.75;1.67;;;15.70;87.30;;;;;;4996668;28;20427;-81
2022/10/14 11:14:48;;;;;;;3.37;1.67;;;15.70;86.20;;;;;;5013495;28;20407;-82
2022/10/14 11:17:43;;;;;;;4.07;1.50;;;15.70;86.00;;;;;;5016290;28;20867;-85
2022/10/14 11:20:42;;;;;;;2.75;1.20;;;15.70;87.60;;;;;;5051869;28;20763;-83
2022/10/14 11:23:17;;;;;;;2.00;0.95;;;15.60;87.60;;;;;;5074254;28;20381;-81
2022/10/14 11:26:26;;;;;;;2.60;1.00;;;15.60;87.20;;;;;;5073927;28;20904;-81
2022/10/14 11:29:18;;;;;;;4.97;1.10;;;15.50;87.60;;;;;;5065127;28;20378;-84
2022/10/14 11:32:14;;;;;;;2.63;0.90;;;15.60;87.50;;;;;;5073785;28;20365;-80
2022/10/14 11:35:04;;;;;;;2.58;0.90;;;15.60;86.40;;;;;;5073235;28;20378;-82
2022/10/14 11:38:02;;;;;;;2.63;0.90;;;15.70;86.80;;;;;;5073272;28;20446;-82
2022/10/14 11:40:37;;;;;;;1.60;0.98;;;15.60;86.80;;;;;;5072924;28;20370;-84
2022/10/14 11:43:15;;;;;;;1.37;0.90;;;15.60;86.80;;;;;;5071630;28;20753;-84
2022/10/14 11:45:48;;;;;;;2.17;0.85;;;15.60;87.30;;;;;;5073304;28;20424;-82
2022/10/14 11:48:31;;;;;;;3.13;1.00;;;15.50;87.80;;;;;;5073274;28;20366;-83
2022/10/14 11:51:16;;;;;;;1.60;0.90;;;15.40;89.10;;;;;;5072871;28;20374;-82
2022/10/14 11:54:00;;;;;;;2.13;1.00;;;15.20;90.20;;;;;;5072768;28;20390;-83
2022/10/14 11:56:56;;;;;;;2.63;1.00;;;15.10;91.00;;;;;;5072918;28;20405;-82
2022/10/14 11:59:30;;;;;;;1.90;0.80;;;15.00;92.20;;;;;;5072679;28;20368;-82
2022/10/14 12:02:03;;;;;;;1.98;1.00;;;14.90;92.80;;;;;;5073069;28;20363;-82
2022/10/14 12:04:37;;;;;;;4.13;1.10;;;14.70;93.40;;;;;;5073001;28;20438;-85
2022/10/14 12:07:11;;;;;;;1.90;1.00;;;14.70;94.40;;;;;;5071347;28;20780;-82
2022/10/14 12:09:52;;;;;;;2.35;1.10;;;14.60;95.10;;;;;;5072693;28;20368;-84
2022/10/14 12:12:24;;;;;;;2.90;0.88;;;14.50;95.70;;;;;;5072587;28;20475;-82
2022/10/14 12:14:57;;;;;;;4.90;1.10;;;14.50;96.50;;;;;;5072371;28;20389;-83
2022/10/14 12:17:45;;;;;;;3.20;1.10;;;14.50;97.40;;;;;;5073227;28;20726;-84
2022/10/14 12:20:33;;;;;;;2.70;1.00;;;14.40;97.70;;;;;;5072710;28;20366;-84
2022/10/14 12:23:03;;;;;;;2.20;1.00;;;14.40;98.20;;;;;;5054816;28;20787;-83
2022/10/14 12:25:38;;;;;;;2.00;1.00;;;14.30;98.30;;;;;;5077296;28;20367;-81
2022/10/14 12:28:07;;;;;;;2.90;1.20;;;14.20;98.50;;;;;;5080450;28;20746;-82
2022/10/14 12:30:40;;;;;;;2.20;1.10;;;14.10;98.80;;;;;;5079912;28;20374;-82
2022/10/14 12:33:12;;;;;;;2.00;1.10;;;14.10;99.30;;;;;;5081687;28;20402;-84
2022/10/14 12:35:50;;;;;;;2.65;1.30;;;14.00;99.70;;;;;;5076980;28;20362;-82
2022/10/14 12:38:19;;;;;;;3.45;1.40;;;13.90;99.90;;;;;;5076808;28;20378;-85
2022/10/14 12:40:49;;;;;;;1.65;1.33;;;13.90;99.90;;;;;;5074929;28;20956;-80
2022/10/14 12:43:18;;;;;;;3.70;1.40;;;13.90;99.90;;;;;;5076528;28;20375;-81
2022/10/14 12:46:13;;;;;;;2.58;1.30;;;14.00;99.90;;;;;;5076100;28;20369;-81
2022/10/14 12:48:49;;;;;;;2.92;1.40;;;13.90;99.90;;;;;;5075869;28;20921;-81
2022/10/14 12:51:26;;;;;;;2.80;1.60;;;13.90;99.90;;;;;;5075953;28;20371;-81
2022/10/14 12:54:05;;;;;;;2.35;1.40;;;13.80;99.90;;;;;;5075673;28;20397;-82
2022/10/14 12:56:37;;;;;;;2.38;1.30;;;13.80;99.90;;;;;;5075996;28;20362;-80
2022/10/14 12:59:11;;;;;;;2.97;1.50;;;13.80;99.90;;;;;;5076436;28;20723;-81
2022/10/14 13:01:43;;;;;;;2.50;1.50;;;13.70;99.90;;;;;;5076506;28;20373;-81
2022/10/14 13:04:18;;;;;;;2.60;1.30;;;13.70;99.90;;;;;;5081987;28;20363;-81
2022/10/14 13:07:27;;;;;;;2.13;1.25;;;13.70;99.90;;;;;;5081408;28;20385;-83
2022/10/14 13:10:39;;;;;;;2.55;1.35;;;13.70;99.90;;;;;;5078764;28;20450;-84
2022/10/14 13:13:57;;;;;;;2.73;1.30;;;13.70;99.90;;;;;;5078887;28;20414;-83
2022/10/14 13:16:32;;;;;;;3.72;1.20;;;13.60;99.90;;;;;;5075998;28;20374;-85
2022/10/14 13:19:01;;;;;;;3.60;1.30;;;13.50;99.90;;;;;;5076915;28;20393;-85
2022/10/14 13:21:46;;;;;;;3.33;1.30;;;13.40;99.90;;;;;;5076126;28;20366;-86
2022/10/14 13:24:29;;;;;;;2.13;1.20;;;13.40;99.90;;;;;;5059128;28;20869;-83